Terminal Aerodrome Forecast
Issued by NWS

Home | Current Version | Previous Version | Text Only | Print | Product List | Glossary On
Versions: 1 2 3 4 5 6 7 8 9 10 11 12 13 14 15 16 17 18
313
FTUS42 TJSJ 280541
TAFJSJ
TAF
TJSJ 280541Z 2806/2906 11003KT P6SM VCSH SCT025 SCT040
     FM281400 11005KT P6SM FEW028 SCT060
     FM281700 07010KT P6SM VCTS FEW027 SCT040CB
     FM282100 10007KT P6SM VCSH SCT030 SCT080=

USA.gov is the U.S. government's official web portal to all federal, state and local government web resources and services.